sensor_id;sensor_type;location;lat;lon;timestamp;temperature;humidity
997;DHT22;487;50.126;8.698;2023-04-08T04:01:41;6.90;99.90
997;DHT22;487;50.126;8.698;2023-04-08T04:04:09;6.80;99.90
997;DHT22;487;50.126;8.698;2023-04-08T04:06:37;6.80;99.90
997;DHT22;487;50.126;8.698;2023-04-08T04:09:04;6.80;99.90
997;DHT22;487;50.126;8.698;2023-04-08T04:11:34;6.80;99.90
997;DHT22;487;50.126;8.698;2023-04-08T04:14:02;6.70;99.90
997;DHT22;487;50.126;8.698;2023-04-08T04:16:30;6.70;99.90
997;DHT22;487;50.126;8.698;2023-04-08T04:19:00;6.70;99.90
997;DHT22;487;50.126;8.698;2023-04-08T04:21:30;6.70;99.90
997;DHT22;487;50.126;8.698;2023-04-08T04:23:58;6.70;99.90
997;DHT22;487;50.126;8.698;2023-04-08T04:26:26;6.70;99.90
997;DHT22;487;50.126;8.698;2023-04-08T04:28:54;6.80;99.90
997;DHT22;487;50.126;8.698;2023-04-08T04:31:23;6.80;99.90
997;DHT22;487;50.126;8.698;2023-04-08T04:33:52;6.70;99.90
997;DHT22;487;50.126;8.698;2023-04-08T04:36:21;6.70;99.90
997;DHT22;487;50.126;8.698;2023-04-08T04:38:49;6.70;99.90
997;DHT22;487;50.126;8.698;2023-04-08T04:41:18;6.70;99.90
997;DHT22;487;50.126;8.698;2023-04-08T04:43:47;6.60;99.90
997;DHT22;487;50.126;8.698;2023-04-08T04:46:15;6.60;99.90
997;DHT22;487;50.126;8.698;2023-04-08T04:48:43;6.70;99.90
997;DHT22;487;50.126;8.698;2023-04-08T04:51:11;6.60;99.90
997;DHT22;487;50.126;8.698;2023-04-08T04:53:40;6.60;99.90
997;DHT22;487;50.126;8.698;2023-04-08T04:56:07;6.60;99.90
997;DHT22;487;50.126;8.698;2023-04-08T04:58:35;6.60;99.90
997;DHT22;487;50.126;8.698;2023-04-08T05:01:03;6.60;99.90
997;DHT22;487;50.126;8.698;2023-04-08T05:03:31;6.60;99.90
997;DHT22;487;50.126;8.698;2023-04-08T05:05:59;6.60;99.90
997;DHT22;487;50.126;8.698;2023-04-08T05:08:27;6.60;99.90
997;DHT22;487;50.126;8.698;2023-04-08T05:10:56;6.70;99.90
997;DHT22;487;50.126;8.698;2023-04-08T05:13:27;6.70;99.90
997;DHT22;487;50.126;8.698;2023-04-08T05:15:55;6.60;99.90
997;DHT22;487;50.126;8.698;2023-04-08T05:18:23;6.60;99.90
997;DHT22;487;50.126;8.698;2023-04-08T05:20:51;6.60;99.90
997;DHT22;487;50.126;8.698;2023-04-08T05:23:18;6.60;99.90
997;DHT22;487;50.126;8.698;2023-04-08T05:25:46;6.60;99.90
997;DHT22;487;50.126;8.698;2023-04-08T05:28:15;6.70;99.90
997;DHT22;487;50.126;8.698;2023-04-08T05:30:48;6.70;99.90
997;DHT22;487;50.126;8.698;2023-04-08T05:33:16;6.80;99.90
997;DHT22;487;50.126;8.698;2023-04-08T05:35:43;6.80;99.90
997;DHT22;487;50.126;8.698;2023-04-08T05:38:11;6.80;99.90
997;DHT22;487;50.126;8.698;2023-04-08T05:40:39;6.90;99.90
997;DHT22;487;50.126;8.698;2023-04-08T05:43:07;6.90;99.90
997;DHT22;487;50.126;8.698;2023-04-08T05:45:36;6.90;99.90
997;DHT22;487;50.126;8.698;2023-04-08T05:48:04;6.90;99.90
997;DHT22;487;50.126;8.698;2023-04-08T05:50:34;7.00;99.90
997;DHT22;487;50.126;8.698;2023-04-08T05:53:02;7.00;99.90
997;DHT22;487;50.126;8.698;2023-04-08T05:55:29;7.10;99.90
997;DHT22;487;50.126;8.698;2023-04-08T05:57:57;7.10;99.90
997;DHT22;487;50.126;8.698;2023-04-08T06:00:25;7.20;99.90
997;DHT22;487;50.126;8.698;2023-04-08T06:02:57;7.20;99.90
997;DHT22;487;50.126;8.698;2023-04-08T06:05:26;7.20;99.90
997;DHT22;487;50.126;8.698;2023-04-08T06:07:53;7.20;99.90
997;DHT22;487;50.126;8.698;2023-04-08T06:10:22;7.20;99.90
997;DHT22;487;50.126;8.698;2023-04-08T06:12:50;7.30;99.90
997;DHT22;487;50.126;8.698;2023-04-08T06:15:18;7.30;99.90
997;DHT22;487;50.126;8.698;2023-04-08T06:17:46;7.40;99.90
997;DHT22;487;50.126;8.698;2023-04-08T06:20:15;7.50;99.90
997;DHT22;487;50.126;8.698;2023-04-08T06:22:43;7.60;99.90
997;DHT22;487;50.126;8.698;2023-04-08T06:25:11;7.60;99.90
997;DHT22;487;50.126;8.698;2023-04-08T06:27:39;7.60;99.90
997;DHT22;487;50.126;8.698;2023-04-08T06:30:08;7.70;99.90
997;DHT22;487;50.126;8.698;2023-04-08T06:32:36;7.70;99.90
997;DHT22;487;50.126;8.698;2023-04-08T06:35:05;7.80;99.90
997;DHT22;487;50.126;8.698;2023-04-08T06:37:35;7.80;99.90
997;DHT22;487;50.126;8.698;2023-04-08T06:40:05;7.80;99.90
997;DHT22;487;50.126;8.698;2023-04-08T06:42:33;7.90;99.90
997;DHT22;487;50.126;8.698;2023-04-08T06:45:02;7.90;99.90
997;DHT22;487;50.126;8.698;2023-04-08T06:47:30;7.90;99.90
997;DHT22;487;50.126;8.698;2023-04-08T06:49:58;8.00;99.90
997;DHT22;487;50.126;8.698;2023-04-08T06:52:26;8.00;99.90
997;DHT22;487;50.126;8.698;2023-04-08T06:54:55;8.00;99.90
997;DHT22;487;50.126;8.698;2023-04-08T06:57:22;7.90;99.90
997;DHT22;487;50.126;8.698;2023-04-08T06:59:50;8.00;99.90
997;DHT22;487;50.126;8.698;2023-04-08T07:02:19;8.00;99.90
997;DHT22;487;50.126;8.698;2023-04-08T07:04:48;8.20;99.90
997;DHT22;487;50.126;8.698;2023-04-08T07:07:16;8.20;99.90
997;DHT22;487;50.126;8.698;2023-04-08T07:09:44;8.30;99.90
997;DHT22;487;50.126;8.698;2023-04-08T07:12:13;8.30;99.90
997;DHT22;487;50.126;8.698;2023-04-08T07:14:41;8.40;99.90
997;DHT22;487;50.126;8.698;2023-04-08T07:17:09;8.50;99.90
997;DHT22;487;50.126;8.698;2023-04-08T07:19:37;8.50;99.90
997;DHT22;487;50.126;8.698;2023-04-08T07:22:05;8.60;99.90
997;DHT22;487;50.126;8.698;2023-04-08T07:24:32;8.70;99.90
997;DHT22;487;50.126;8.698;2023-04-08T07:27:00;8.70;99.90
997;DHT22;487;50.126;8.698;2023-04-08T07:29:30;8.80;99.90
997;DHT22;487;50.126;8.698;2023-04-08T07:31:57;8.80;99.90
997;DHT22;487;50.126;8.698;2023-04-08T07:34:25;8.40;99.90
997;DHT22;487;50.126;8.698;2023-04-08T07:36:53;8.90;99.90
997;DHT22;487;50.126;8.698;2023-04-08T07:39:21;8.90;99.90
997;DHT22;487;50.126;8.698;2023-04-08T07:41:49;8.90;99.90
997;DHT22;487;50.126;8.698;2023-04-08T07:44:17;9.00;99.90
997;DHT22;487;50.126;8.698;2023-04-08T07:46:46;9.10;99.90
997;DHT22;487;50.126;8.698;2023-04-08T07:49:17;9.10;99.90
997;DHT22;487;50.126;8.698;2023-04-08T07:51:44;9.30;99.90
997;DHT22;487;50.126;8.698;2023-04-08T07:54:12;9.30;99.90
997;DHT22;487;50.126;8.698;2023-04-08T07:56:43;9.30;99.90
997;DHT22;487;50.126;8.698;2023-04-08T07:59:11;9.20;99.90
997;DHT22;487;50.126;8.698;2023-04-08T08:01:39;9.10;99.90
997;DHT22;487;50.126;8.698;2023-04-08T08:04:08;9.10;99.90
997;DHT22;487;50.126;8.698;2023-04-08T08:06:37;9.10;99.90
997;DHT22;487;50.126;8.698;2023-04-08T08:09:05;9.00;99.90
997;DHT22;487;50.126;8.698;2023-04-08T08:11:32;9.00;99.90
997;DHT22;487;50.126;8.698;2023-04-08T08:14:00;9.00;99.90
997;DHT22;487;50.126;8.698;2023-04-08T08:16:30;9.00;99.90
997;DHT22;487;50.126;8.698;2023-04-08T08:18:59;9.00;99.90
997;DHT22;487;50.126;8.698;2023-04-08T08:21:28;9.00;99.90
997;DHT22;487;50.126;8.698;2023-04-08T08:23:56;9.10;99.90
997;DHT22;487;50.126;8.698;2023-04-08T08:26:25;9.10;99.90
997;DHT22;487;50.126;8.698;2023-04-08T08:28:54;9.10;99.90
997;DHT22;487;50.126;8.698;2023-04-08T08:33:50;8.90;99.90
997;DHT22;487;50.126;8.698;2023-04-08T08:36:18;8.90;99.90
997;DHT22;487;50.126;8.698;2023-04-08T08:41:17;8.80;99.90
997;DHT22;487;50.126;8.698;2023-04-08T08:43:45;8.70;99.90
997;DHT22;487;50.126;8.698;2023-04-08T08:46:16;8.70;99.90
997;DHT22;487;50.126;8.698;2023-04-08T08:48:44;8.80;99.90
997;DHT22;487;50.126;8.698;2023-04-08T08:53:41;8.60;99.90
997;DHT22;487;50.126;8.698;2023-04-08T08:56:12;8.60;99.90
997;DHT22;487;50.126;8.698;2023-04-08T08:58:44;8.50;99.90
997;DHT22;487;50.126;8.698;2023-04-08T09:01:30;8.60;99.90
997;DHT22;487;50.126;8.698;2023-04-08T09:04:20;8.60;99.90
997;DHT22;487;50.126;8.698;2023-04-08T09:06:50;8.60;99.90
997;DHT22;487;50.126;8.698;2023-04-08T09:09:47;8.70;99.90
997;DHT22;487;50.126;8.698;2023-04-08T09:12:16;8.80;99.90
997;DHT22;487;50.126;8.698;2023-04-08T09:17:13;8.90;99.90
997;DHT22;487;50.126;8.698;2023-04-08T09:20:03;9.00;99.90
997;DHT22;487;50.126;8.698;2023-04-08T09:22:54;9.10;99.90
997;DHT22;487;50.126;8.698;2023-04-08T09:25:23;9.10;99.90
997;DHT22;487;50.126;8.698;2023-04-08T09:27:53;9.20;99.90
997;DHT22;487;50.126;8.698;2023-04-08T09:30:22;9.30;99.90
997;DHT22;487;50.126;8.698;2023-04-08T09:32:51;9.40;99.90
997;DHT22;487;50.126;8.698;2023-04-08T09:37:49;9.50;99.90
997;DHT22;487;50.126;8.698;2023-04-08T09:40:18;9.50;99.90
997;DHT22;487;50.126;8.698;2023-04-08T09:45:18;9.50;99.90
997;DHT22;487;50.126;8.698;2023-04-08T09:47:56;9.40;99.90
997;DHT22;487;50.126;8.698;2023-04-08T09:50:32;9.50;99.90
997;DHT22;487;50.126;8.698;2023-04-08T09:53:10;9.50;99.90
997;DHT22;487;50.126;8.698;2023-04-08T09:58:15;9.60;99.90
997;DHT22;487;50.126;8.698;2023-04-08T10:00:48;9.60;99.90
997;DHT22;487;50.126;8.698;2023-04-08T10:03:24;9.70;99.90
997;DHT22;487;50.126;8.698;2023-04-08T10:08:23;9.80;99.90
997;DHT22;487;50.126;8.698;2023-04-08T10:10:53;9.90;99.90
997;DHT22;487;50.126;8.698;2023-04-08T10:13:22;10.00;99.90
997;DHT22;487;50.126;8.698;2023-04-08T10:16:18;10.10;99.90
997;DHT22;487;50.126;8.698;2023-04-08T10:18:46;10.20;99.90
997;DHT22;487;50.126;8.698;2023-04-08T10:21:33;10.30;99.90
997;DHT22;487;50.126;8.698;2023-04-08T10:24:02;10.40;99.90
997;DHT22;487;50.126;8.698;2023-04-08T10:26:34;10.50;99.90
997;DHT22;487;50.126;8.698;2023-04-08T10:29:31;10.50;99.90
997;DHT22;487;50.126;8.698;2023-04-08T10:32:01;10.40;99.90
997;DHT22;487;50.126;8.698;2023-04-08T10:34:29;10.60;99.90
997;DHT22;487;50.126;8.698;2023-04-08T10:36:57;10.50;99.90
997;DHT22;487;50.126;8.698;2023-04-08T10:39:29;10.60;99.90
997;DHT22;487;50.126;8.698;2023-04-08T10:42:00;10.60;99.90
997;DHT22;487;50.126;8.698;2023-04-08T10:44:28;10.60;99.90
997;DHT22;487;50.126;8.698;2023-04-08T10:46:56;10.60;99.90
997;DHT22;487;50.126;8.698;2023-04-08T10:49:32;10.60;99.90
997;DHT22;487;50.126;8.698;2023-04-08T10:52:06;10.60;99.90
997;DHT22;487;50.126;8.698;2023-04-08T10:54:36;10.70;99.90
997;DHT22;487;50.126;8.698;2023-04-08T10:57:06;10.70;99.90
997;DHT22;487;50.126;8.698;2023-04-08T10:59:34;10.80;99.90
997;DHT22;487;50.126;8.698;2023-04-08T11:02:02;10.70;99.90
997;DHT22;487;50.126;8.698;2023-04-08T11:04:31;10.70;99.90
997;DHT22;487;50.126;8.698;2023-04-08T11:07:04;10.70;99.90
997;DHT22;487;50.126;8.698;2023-04-08T11:09:33;11.00;99.90
997;DHT22;487;50.126;8.698;2023-04-08T11:12:01;11.00;99.90
997;DHT22;487;50.126;8.698;2023-04-08T11:14:30;11.20;99.90
997;DHT22;487;50.126;8.698;2023-04-08T11:16:58;11.20;99.90
997;DHT22;487;50.126;8.698;2023-04-08T11:19:27;11.30;99.90
997;DHT22;487;50.126;8.698;2023-04-08T11:24:27;11.10;99.90
997;DHT22;487;50.126;8.698;2023-04-08T11:26:55;11.20;99.90
997;DHT22;487;50.126;8.698;2023-04-08T11:29:23;11.30;99.90
997;DHT22;487;50.126;8.698;2023-04-08T11:31:51;11.50;99.90
997;DHT22;487;50.126;8.698;2023-04-08T11:36:51;11.60;99.90
997;DHT22;487;50.126;8.698;2023-04-08T11:39:23;11.60;99.90
997;DHT22;487;50.126;8.698;2023-04-08T11:41:52;11.50;99.90
997;DHT22;487;50.126;8.698;2023-04-08T11:44:29;11.10;99.90
997;DHT22;487;50.126;8.698;2023-04-08T11:46:57;11.10;99.90
997;DHT22;487;50.126;8.698;2023-04-08T11:49:25;11.00;99.90
997;DHT22;487;50.126;8.698;2023-04-08T11:51:54;11.00;99.90
997;DHT22;487;50.126;8.698;2023-04-08T11:54:28;10.80;99.90
997;DHT22;487;50.126;8.698;2023-04-08T11:56:55;10.80;99.90
997;DHT22;487;50.126;8.698;2023-04-08T11:59:24;10.90;99.90
997;DHT22;487;50.126;8.698;2023-04-08T12:01:55;11.00;99.90
997;DHT22;487;50.126;8.698;2023-04-08T12:04:23;11.20;99.90
997;DHT22;487;50.126;8.698;2023-04-08T12:06:51;11.00;99.90
997;DHT22;487;50.126;8.698;2023-04-08T12:09:22;11.00;99.90
997;DHT22;487;50.126;8.698;2023-04-08T12:11:51;11.00;99.90
997;DHT22;487;50.126;8.698;2023-04-08T12:14:19;11.20;99.90
997;DHT22;487;50.126;8.698;2023-04-08T12:16:53;11.20;99.90
997;DHT22;487;50.126;8.698;2023-04-08T12:19:21;11.40;99.90
997;DHT22;487;50.126;8.698;2023-04-08T12:21:49;11.50;99.90
997;DHT22;487;50.126;8.698;2023-04-08T12:24:19;11.70;99.90
997;DHT22;487;50.126;8.698;2023-04-08T12:26:47;11.70;99.90
997;DHT22;487;50.126;8.698;2023-04-08T12:29:17;11.80;99.90
997;DHT22;487;50.126;8.698;2023-04-08T12:31:45;11.60;99.90
997;DHT22;487;50.126;8.698;2023-04-08T12:34:13;11.70;99.90
997;DHT22;487;50.126;8.698;2023-04-08T12:36:41;11.70;99.90
997;DHT22;487;50.126;8.698;2023-04-08T12:39:10;11.80;99.90
997;DHT22;487;50.126;8.698;2023-04-08T12:41:38;11.70;99.90
997;DHT22;487;50.126;8.698;2023-04-08T12:44:06;12.00;99.90
997;DHT22;487;50.126;8.698;2023-04-08T12:46:35;12.00;99.90
997;DHT22;487;50.126;8.698;2023-04-08T12:49:03;12.10;99.90
997;DHT22;487;50.126;8.698;2023-04-08T12:51:32;12.30;99.90
997;DHT22;487;50.126;8.698;2023-04-08T12:54:00;12.50;99.90
997;DHT22;487;50.126;8.698;2023-04-08T12:56:29;12.50;99.90
997;DHT22;487;50.126;8.698;2023-04-08T12:58:57;12.40;99.90
997;DHT22;487;50.126;8.698;2023-04-08T13:03:55;12.50;99.90
997;DHT22;487;50.126;8.698;2023-04-08T13:06:23;12.50;99.90
997;DHT22;487;50.126;8.698;2023-04-08T13:08:52;12.50;99.90
997;DHT22;487;50.126;8.698;2023-04-08T13:11:20;12.50;99.90
997;DHT22;487;50.126;8.698;2023-04-08T13:13:47;12.50;99.90
997;DHT22;487;50.126;8.698;2023-04-08T13:16:16;12.50;99.90
997;DHT22;487;50.126;8.698;2023-04-08T13:18:44;12.50;99.90
997;DHT22;487;50.126;8.698;2023-04-08T13:21:14;12.40;99.90
997;DHT22;487;50.126;8.698;2023-04-08T13:26:12;12.40;99.90
997;DHT22;487;50.126;8.698;2023-04-08T13:28:40;12.40;99.90
997;DHT22;487;50.126;8.698;2023-04-08T13:33:51;12.30;99.90
997;DHT22;487;50.126;8.698;2023-04-08T13:36:24;12.30;99.90
997;DHT22;487;50.126;8.698;2023-04-08T13:38:54;12.30;99.90
997;DHT22;487;50.126;8.698;2023-04-08T13:41:22;12.30;99.90
997;DHT22;487;50.126;8.698;2023-04-08T13:43:51;12.10;99.90
997;DHT22;487;50.126;8.698;2023-04-08T13:46:19;12.10;99.90
997;DHT22;487;50.126;8.698;2023-04-08T13:48:47;12.10;99.90
997;DHT22;487;50.126;8.698;2023-04-08T13:51:15;12.20;99.90
997;DHT22;487;50.126;8.698;2023-04-08T13:53:44;12.40;99.90
997;DHT22;487;50.126;8.698;2023-04-08T13:56:12;12.50;99.90
997;DHT22;487;50.126;8.698;2023-04-08T13:58:40;12.40;99.90
997;DHT22;487;50.126;8.698;2023-04-08T14:01:09;12.40;99.90
997;DHT22;487;50.126;8.698;2023-04-08T14:03:37;12.30;99.90
997;DHT22;487;50.126;8.698;2023-04-08T14:06:05;13.70;99.90
997;DHT22;487;50.126;8.698;2023-04-08T14:08:33;12.10;99.90
997;DHT22;487;50.126;8.698;2023-04-08T14:11:03;12.00;99.90
997;DHT22;487;50.126;8.698;2023-04-08T14:15:59;11.80;99.90
997;DHT22;487;50.126;8.698;2023-04-08T14:18:28;11.80;99.90
997;DHT22;487;50.126;8.698;2023-04-08T14:20:58;11.80;99.90
997;DHT22;487;50.126;8.698;2023-04-08T14:23:26;11.70;99.90
997;DHT22;487;50.126;8.698;2023-04-08T14:25:54;11.60;99.90
997;DHT22;487;50.126;8.698;2023-04-08T14:28:23;11.70;99.90
997;DHT22;487;50.126;8.698;2023-04-08T14:30:51;11.80;99.90
997;DHT22;487;50.126;8.698;2023-04-08T14:33:22;11.80;99.90
997;DHT22;487;50.126;8.698;2023-04-08T14:35:51;11.80;99.90
997;DHT22;487;50.126;8.698;2023-04-08T14:38:19;11.80;99.90
997;DHT22;487;50.126;8.698;2023-04-08T14:40:48;11.90;99.90
997;DHT22;487;50.126;8.698;2023-04-08T14:43:16;12.00;99.90
997;DHT22;487;50.126;8.698;2023-04-08T14:45:46;12.00;99.90
997;DHT22;487;50.126;8.698;2023-04-08T14:48:14;12.00;99.90
997;DHT22;487;50.126;8.698;2023-04-08T14:50:42;12.10;99.90
997;DHT22;487;50.126;8.698;2023-04-08T14:53:10;12.10;99.90
997;DHT22;487;50.126;8.698;2023-04-08T14:55:38;12.20;99.90
997;DHT22;487;50.126;8.698;2023-04-08T14:58:05;12.20;99.90
997;DHT22;487;50.126;8.698;2023-04-08T15:00:33;12.10;99.90
997;DHT22;487;50.126;8.698;2023-04-08T15:03:03;12.20;99.90
997;DHT22;487;50.126;8.698;2023-04-08T15:10:42;12.20;99.90
997;DHT22;487;50.126;8.698;2023-04-08T15:13:12;12.20;99.90
997;DHT22;487;50.126;8.698;2023-04-08T15:15:40;12.40;99.90
997;DHT22;487;50.126;8.698;2023-04-08T15:18:12;12.70;99.90
997;DHT22;487;50.126;8.698;2023-04-08T15:20:40;12.70;99.90
997;DHT22;487;50.126;8.698;2023-04-08T15:25:37;13.20;99.90
997;DHT22;487;50.126;8.698;2023-04-08T15:28:05;13.40;99.90
997;DHT22;487;50.126;8.698;2023-04-08T15:30:34;13.80;99.90
997;DHT22;487;50.126;8.698;2023-04-08T15:33:03;14.00;99.90
997;DHT22;487;50.126;8.698;2023-04-08T15:35:32;14.10;99.90
997;DHT22;487;50.126;8.698;2023-04-08T15:38:00;14.10;99.90
997;DHT22;487;50.126;8.698;2023-04-08T15:40:28;13.90;99.90
997;DHT22;487;50.126;8.698;2023-04-08T15:42:59;13.80;99.90
997;DHT22;487;50.126;8.698;2023-04-08T15:45:27;13.70;99.90
997;DHT22;487;50.126;8.698;2023-04-08T15:47:58;13.60;99.90
997;DHT22;487;50.126;8.698;2023-04-08T15:50:27;13.50;99.90
997;DHT22;487;50.126;8.698;2023-04-08T15:52:57;13.30;99.90
997;DHT22;487;50.126;8.698;2023-04-08T15:55:25;13.20;99.90
997;DHT22;487;50.126;8.698;2023-04-08T16:00:22;13.00;99.90
997;DHT22;487;50.126;8.698;2023-04-08T16:02:50;12.80;99.90
997;DHT22;487;50.126;8.698;2023-04-08T16:05:19;12.70;99.90
997;DHT22;487;50.126;8.698;2023-04-08T16:07:46;12.70;99.90
997;DHT22;487;50.126;8.698;2023-04-08T16:12:44;12.60;99.90
997;DHT22;487;50.126;8.698;2023-04-08T16:15:13;12.50;99.90
997;DHT22;487;50.126;8.698;2023-04-08T16:17:40;12.50;99.90
997;DHT22;487;50.126;8.698;2023-04-08T16:20:09;12.40;99.90
997;DHT22;487;50.126;8.698;2023-04-08T16:22:37;12.40;99.90
997;DHT22;487;50.126;8.698;2023-04-08T16:25:06;12.40;99.90
997;DHT22;487;50.126;8.698;2023-04-08T16:27:35;12.40;99.90
997;DHT22;487;50.126;8.698;2023-04-08T16:30:04;12.40;99.90
997;DHT22;487;50.126;8.698;2023-04-08T16:32:33;12.20;99.90
997;DHT22;487;50.126;8.698;2023-04-08T16:35:00;12.30;99.90
997;DHT22;487;50.126;8.698;2023-04-08T16:37:28;12.30;99.90
997;DHT22;487;50.126;8.698;2023-04-08T16:39:56;12.30;99.90
997;DHT22;487;50.126;8.698;2023-04-08T16:42:24;12.20;99.90
997;DHT22;487;50.126;8.698;2023-04-08T16:44:56;12.20;99.90
997;DHT22;487;50.126;8.698;2023-04-08T16:47:25;12.20;99.90
997;DHT22;487;50.126;8.698;2023-04-08T16:49:53;12.20;99.90
997;DHT22;487;50.126;8.698;2023-04-08T16:52:21;12.10;99.90
997;DHT22;487;50.126;8.698;2023-04-08T16:54:51;11.90;99.90
997;DHT22;487;50.126;8.698;2023-04-08T16:57:20;11.90;99.90
997;DHT22;487;50.126;8.698;2023-04-08T16:59:48;11.90;99.90
997;DHT22;487;50.126;8.698;2023-04-08T17:02:17;11.90;99.90
997;DHT22;487;50.126;8.698;2023-04-08T17:04:48;12.00;99.90
997;DHT22;487;50.126;8.698;2023-04-08T17:07:17;12.00;99.90
997;DHT22;487;50.126;8.698;2023-04-08T17:09:48;12.00;99.90
997;DHT22;487;50.126;8.698;2023-04-08T17:12:20;12.00;99.90
997;DHT22;487;50.126;8.698;2023-04-08T17:14:47;12.00;99.90
997;DHT22;487;50.126;8.698;2023-04-08T17:17:17;12.00;99.90
997;DHT22;487;50.126;8.698;2023-04-08T17:19:45;11.90;99.90
997;DHT22;487;50.126;8.698;2023-04-08T17:22:13;11.90;99.90
997;DHT22;487;50.126;8.698;2023-04-08T17:24:47;11.90;99.90
997;DHT22;487;50.126;8.698;2023-04-08T17:29:43;11.80;99.90
997;DHT22;487;50.126;8.698;2023-04-08T17:32:11;11.80;99.90
997;DHT22;487;50.126;8.698;2023-04-08T17:34:40;11.80;99.90
997;DHT22;487;50.126;8.698;2023-04-08T17:37:09;11.70;99.90
997;DHT22;487;50.126;8.698;2023-04-08T17:39:37;11.70;99.90
997;DHT22;487;50.126;8.698;2023-04-08T17:42:06;11.80;99.90
997;DHT22;487;50.126;8.698;2023-04-08T17:44:35;11.80;99.90
997;DHT22;487;50.126;8.698;2023-04-08T17:47:03;11.60;99.90
997;DHT22;487;50.126;8.698;2023-04-08T17:49:31;11.70;99.90
997;DHT22;487;50.126;8.698;2023-04-08T17:52:08;11.50;99.90
997;DHT22;487;50.126;8.698;2023-04-08T17:54:36;11.50;99.90
997;DHT22;487;50.126;8.698;2023-04-08T17:57:04;11.50;99.90
997;DHT22;487;50.126;8.698;2023-04-08T17:59:32;11.50;99.90
997;DHT22;487;50.126;8.698;2023-04-08T18:02:00;11.40;99.90
997;DHT22;487;50.126;8.698;2023-04-08T18:04:28;11.40;99.90
997;DHT22;487;50.126;8.698;2023-04-08T18:06:58;11.30;99.90
997;DHT22;487;50.126;8.698;2023-04-08T18:09:30;11.30;99.90
997;DHT22;487;50.126;8.698;2023-04-08T18:11:58;11.20;99.90
997;DHT22;487;50.126;8.698;2023-04-08T18:14:27;11.20;99.90
997;DHT22;487;50.126;8.698;2023-04-08T18:16:55;11.20;99.90
997;DHT22;487;50.126;8.698;2023-04-08T18:19:23;11.20;99.90
997;DHT22;487;50.126;8.698;2023-04-08T18:21:52;11.10;99.90
997;DHT22;487;50.126;8.698;2023-04-08T18:24:20;11.10;99.90
997;DHT22;487;50.126;8.698;2023-04-08T18:26:50;11.00;99.90
997;DHT22;487;50.126;8.698;2023-04-08T18:29:30;11.00;99.90
997;DHT22;487;50.126;8.698;2023-04-08T18:31:58;11.00;99.90
997;DHT22;487;50.126;8.698;2023-04-08T18:34:26;11.00;99.90
997;DHT22;487;50.126;8.698;2023-04-08T18:36:54;10.90;99.90
997;DHT22;487;50.126;8.698;2023-04-08T18:39:22;10.90;99.90
997;DHT22;487;50.126;8.698;2023-04-08T18:41:51;10.90;99.90
997;DHT22;487;50.126;8.698;2023-04-08T18:44:19;11.00;99.90
997;DHT22;487;50.126;8.698;2023-04-08T18:46:58;10.90;99.90
997;DHT22;487;50.126;8.698;2023-04-08T18:49:26;10.90;99.90
997;DHT22;487;50.126;8.698;2023-04-08T18:51:56;10.90;99.90
997;DHT22;487;50.126;8.698;2023-04-08T18:54:29;10.90;99.90
997;DHT22;487;50.126;8.698;2023-04-08T18:56:58;10.90;99.90
997;DHT22;487;50.126;8.698;2023-04-08T18:59:26;10.90;99.90
997;DHT22;487;50.126;8.698;2023-04-08T19:01:55;10.90;99.90
997;DHT22;487;50.126;8.698;2023-04-08T19:04:23;10.90;99.90
997;DHT22;487;50.126;8.698;2023-04-08T19:06:51;10.70;99.90
997;DHT22;487;50.126;8.698;2023-04-08T19:09:19;10.70;99.90
997;DHT22;487;50.126;8.698;2023-04-08T19:11:47;10.70;99.90
997;DHT22;487;50.126;8.698;2023-04-08T19:16:45;10.70;99.90
997;DHT22;487;50.126;8.698;2023-04-08T19:19:13;10.70;99.90
997;DHT22;487;50.126;8.698;2023-04-08T19:21:41;10.70;99.90
997;DHT22;487;50.126;8.698;2023-04-08T19:24:09;10.70;99.90
997;DHT22;487;50.126;8.698;2023-04-08T19:29:05;10.70;99.90
997;DHT22;487;50.126;8.698;2023-04-08T19:31:36;10.70;99.90
997;DHT22;487;50.126;8.698;2023-04-08T19:34:04;10.60;99.90
997;DHT22;487;50.126;8.698;2023-04-08T19:36:34;10.60;99.90
997;DHT22;487;50.126;8.698;2023-04-08T19:39:02;10.50;99.90
997;DHT22;487;50.126;8.698;2023-04-08T19:41:31;10.50;99.90
997;DHT22;487;50.126;8.698;2023-04-08T19:43:59;10.50;99.90
997;DHT22;487;50.126;8.698;2023-04-08T19:46:27;10.40;99.90
997;DHT22;487;50.126;8.698;2023-04-08T19:48:56;10.40;99.90
997;DHT22;487;50.126;8.698;2023-04-08T19:51:25;10.40;99.90
997;DHT22;487;50.126;8.698;2023-04-08T19:53:54;10.40;99.90
997;DHT22;487;50.126;8.698;2023-04-08T19:56:22;10.30;99.90
997;DHT22;487;50.126;8.698;2023-04-08T19:58:51;10.30;99.90
997;DHT22;487;50.126;8.698;2023-04-08T20:01:19;10.30;99.90
997;DHT22;487;50.126;8.698;2023-04-08T20:03:47;10.20;99.90
997;DHT22;487;50.126;8.698;2023-04-08T20:06:19;10.30;99.90
997;DHT22;487;50.126;8.698;2023-04-08T20:08:47;10.30;99.90
997;DHT22;487;50.126;8.698;2023-04-08T20:11:16;10.20;99.90
997;DHT22;487;50.126;8.698;2023-04-08T20:13:43;10.20;99.90
997;DHT22;487;50.126;8.698;2023-04-08T20:16:12;10.20;99.90
997;DHT22;487;50.126;8.698;2023-04-08T20:18:40;10.10;99.90
997;DHT22;487;50.126;8.698;2023-04-08T20:21:08;10.10;99.90
997;DHT22;487;50.126;8.698;2023-04-08T20:23:40;10.10;99.90
997;DHT22;487;50.126;8.698;2023-04-08T20:26:10;10.00;99.90
997;DHT22;487;50.126;8.698;2023-04-08T20:28:39;10.00;99.90
997;DHT22;487;50.126;8.698;2023-04-08T20:31:07;9.90;99.90
997;DHT22;487;50.126;8.698;2023-04-08T20:33:36;9.90;99.90
997;DHT22;487;50.126;8.698;2023-04-08T20:36:09;9.90;99.90
997;DHT22;487;50.126;8.698;2023-04-08T20:38:39;9.90;99.90
997;DHT22;487;50.126;8.698;2023-04-08T20:41:17;9.90;99.90
997;DHT22;487;50.126;8.698;2023-04-08T20:43:45;9.90;99.90
997;DHT22;487;50.126;8.698;2023-04-08T20:46:13;9.80;99.90
997;DHT22;487;50.126;8.698;2023-04-08T20:48:41;9.80;99.90
997;DHT22;487;50.126;8.698;2023-04-08T20:51:10;9.80;99.90
997;DHT22;487;50.126;8.698;2023-04-08T20:53:39;9.70;99.90
997;DHT22;487;50.126;8.698;2023-04-08T20:56:10;9.70;99.90
997;DHT22;487;50.126;8.698;2023-04-08T20:58:38;9.70;99.90
997;DHT22;487;50.126;8.698;2023-04-08T21:01:06;9.70;99.90
997;DHT22;487;50.126;8.698;2023-04-08T21:03:34;9.60;99.90
997;DHT22;487;50.126;8.698;2023-04-08T21:06:02;9.60;99.90
997;DHT22;487;50.126;8.698;2023-04-08T21:08:30;9.60;99.90
997;DHT22;487;50.126;8.698;2023-04-08T21:10:59;9.20;99.90
997;DHT22;487;50.126;8.698;2023-04-08T21:13:27;9.50;99.90
997;DHT22;487;50.126;8.698;2023-04-08T21:15:55;9.40;99.90
997;DHT22;487;50.126;8.698;2023-04-08T21:18:23;9.40;99.90
997;DHT22;487;50.126;8.698;2023-04-08T21:20:50;9.40;99.90
997;DHT22;487;50.126;8.698;2023-04-08T21:23:18;9.40;99.90
997;DHT22;487;50.126;8.698;2023-04-08T21:25:47;9.40;99.90
997;DHT22;487;50.126;8.698;2023-04-08T21:28:16;9.40;99.90
997;DHT22;487;50.126;8.698;2023-04-08T21:30:44;9.40;99.90
997;DHT22;487;50.126;8.698;2023-04-08T21:33:12;9.30;99.90
997;DHT22;487;50.126;8.698;2023-04-08T21:35:39;9.30;99.90
997;DHT22;487;50.126;8.698;2023-04-08T21:38:08;9.30;99.90
997;DHT22;487;50.126;8.698;2023-04-08T21:40:35;9.30;99.90
997;DHT22;487;50.126;8.698;2023-04-08T21:43:03;9.20;99.90
997;DHT22;487;50.126;8.698;2023-04-08T21:45:32;9.20;99.90
997;DHT22;487;50.126;8.698;2023-04-08T21:48:00;9.20;99.90
997;DHT22;487;50.126;8.698;2023-04-08T21:50:30;9.20;99.90